sensor_id;sensor_type;location;lat;lon;timestamp;pressure;altitude;pressure_sealevel;temperature;humidity
48077;BME280;33854;57.708;12.008;2023-05-23T00:00:20;100996.03;;;16.16;100.00
48077;BME280;33854;57.708;12.008;2023-05-23T00:02:46;100999.53;;;16.17;100.00
48077;BME280;33854;57.708;12.008;2023-05-23T00:05:12;100992.56;;;16.16;100.00
48077;BME280;33854;57.708;12.008;2023-05-23T00:07:40;100984.97;;;16.11;100.00
48077;BME280;33854;57.708;12.008;2023-05-23T00:10:05;100988.34;;;16.13;100.00
48077;BME280;33854;57.708;12.008;2023-05-23T00:12:31;100986.88;;;16.09;100.00
48077;BME280;33854;57.708;12.008;2023-05-23T00:14:58;100983.25;;;16.10;100.00
48077;BME280;33854;57.708;12.008;2023-05-23T00:17:23;100985.81;;;16.12;100.00
48077;BME280;33854;57.708;12.008;2023-05-23T00:19:49;100986.75;;;16.11;100.00
48077;BME280;33854;57.708;12.008;2023-05-23T00:22:15;100978.97;;;16.09;100.00
48077;BME280;33854;57.708;12.008;2023-05-23T00:24:41;100975.47;;;16.09;100.00
48077;BME280;33854;57.708;12.008;2023-05-23T00:27:07;100975.56;;;16.07;100.00
48077;BME280;33854;57.708;12.008;2023-05-23T00:29:32;100973.16;;;16.04;100.00
48077;BME280;33854;57.708;12.008;2023-05-23T00:31:58;100970.59;;;16.03;100.00
48077;BME280;33854;57.708;12.008;2023-05-23T00:34:23;100978.44;;;16.04;100.00
48077;BME280;33854;57.708;12.008;2023-05-23T00:36:49;100977.47;;;16.05;100.00
48077;BME280;33854;57.708;12.008;2023-05-23T00:39:15;100973.44;;;16.00;100.00
48077;BME280;33854;57.708;12.008;2023-05-23T00:41:50;100968.91;;;16.02;100.00
48077;BME280;33854;57.708;12.008;2023-05-23T00:44:16;100967.25;;;16.01;100.00
48077;BME280;33854;57.708;12.008;2023-05-23T00:46:44;100965.53;;;16.00;100.00
48077;BME280;33854;57.708;12.008;2023-05-23T00:49:12;100962.06;;;15.99;100.00
48077;BME280;33854;57.708;12.008;2023-05-23T00:51:37;100954.06;;;16.01;100.00
48077;BME280;33854;57.708;12.008;2023-05-23T00:54:06;100955.75;;;16.02;100.00
48077;BME280;33854;57.708;12.008;2023-05-23T00:56:31;100950.69;;;15.98;100.00
48077;BME280;33854;57.708;12.008;2023-05-23T00:58:57;100951.66;;;15.98;100.00
48077;BME280;33854;57.708;12.008;2023-05-23T01:01:24;100943.41;;;15.89;100.00
48077;BME280;33854;57.708;12.008;2023-05-23T01:03:51;100946.56;;;15.94;100.00
48077;BME280;33854;57.708;12.008;2023-05-23T01:06:17;100943.22;;;15.92;100.00
48077;BME280;33854;57.708;12.008;2023-05-23T01:08:43;100929.41;;;15.89;100.00
48077;BME280;33854;57.708;12.008;2023-05-23T01:11:23;100935.41;;;15.91;100.00
48077;BME280;33854;57.708;12.008;2023-05-23T01:14:12;100927.34;;;15.80;100.00
48077;BME280;33854;57.708;12.008;2023-05-23T01:16:55;100920.69;;;15.74;100.00
48077;BME280;33854;57.708;12.008;2023-05-23T01:22:48;100939.84;;;15.76;100.00
48077;BME280;33854;57.708;12.008;2023-05-23T01:28:12;100943.66;;;15.72;100.00
48077;BME280;33854;57.708;12.008;2023-05-23T01:30:40;100949.91;;;15.70;100.00
48077;BME280;33854;57.708;12.008;2023-05-23T01:33:07;100927.59;;;15.63;100.00
48077;BME280;33854;57.708;12.008;2023-05-23T01:35:33;100940.34;;;15.69;100.00
48077;BME280;33854;57.708;12.008;2023-05-23T01:37:59;100935.19;;;15.67;100.00
48077;BME280;33854;57.708;12.008;2023-05-23T01:40:25;100938.78;;;15.66;100.00
48077;BME280;33854;57.708;12.008;2023-05-23T01:42:52;100935.56;;;15.61;100.00
48077;BME280;33854;57.708;12.008;2023-05-23T01:45:20;100936.41;;;15.62;100.00
48077;BME280;33854;57.708;12.008;2023-05-23T01:47:47;100936.22;;;15.65;100.00
48077;BME280;33854;57.708;12.008;2023-05-23T01:50:15;100932.94;;;15.61;100.00
48077;BME280;33854;57.708;12.008;2023-05-23T01:52:41;100924.50;;;15.56;100.00
48077;BME280;33854;57.708;12.008;2023-05-23T01:55:07;100928.09;;;15.55;100.00
48077;BME280;33854;57.708;12.008;2023-05-23T01:57:35;100927.44;;;15.52;100.00
48077;BME280;33854;57.708;12.008;2023-05-23T02:00:01;100926.00;;;15.46;100.00
48077;BME280;33854;57.708;12.008;2023-05-23T02:02:27;100924.41;;;15.44;100.00
48077;BME280;33854;57.708;12.008;2023-05-23T02:04:52;100920.09;;;15.43;100.00
48077;BME280;33854;57.708;12.008;2023-05-23T02:07:18;100916.41;;;15.45;100.00
48077;BME280;33854;57.708;12.008;2023-05-23T02:09:47;100913.13;;;15.41;100.00
48077;BME280;33854;57.708;12.008;2023-05-23T02:12:13;100905.16;;;15.43;100.00
48077;BME280;33854;57.708;12.008;2023-05-23T02:14:38;100908.16;;;15.37;100.00
48077;BME280;33854;57.708;12.008;2023-05-23T02:17:04;100902.44;;;15.30;100.00
48077;BME280;33854;57.708;12.008;2023-05-23T02:19:29;100902.94;;;15.23;100.00
48077;BME280;33854;57.708;12.008;2023-05-23T02:21:55;100905.09;;;15.16;100.00
48077;BME280;33854;57.708;12.008;2023-05-23T02:24:20;100906.13;;;15.14;100.00
48077;BME280;33854;57.708;12.008;2023-05-23T02:26:45;100894.09;;;15.10;100.00
48077;BME280;33854;57.708;12.008;2023-05-23T02:29:11;100894.28;;;15.07;100.00
48077;BME280;33854;57.708;12.008;2023-05-23T02:31:36;100891.09;;;15.02;100.00
48077;BME280;33854;57.708;12.008;2023-05-23T02:34:02;100879.94;;;14.98;100.00
48077;BME280;33854;57.708;12.008;2023-05-23T02:36:27;100886.22;;;14.96;100.00
48077;BME280;33854;57.708;12.008;2023-05-23T02:38:52;100868.19;;;14.90;100.00
48077;BME280;33854;57.708;12.008;2023-05-23T02:41:18;100863.44;;;14.82;100.00
48077;BME280;33854;57.708;12.008;2023-05-23T02:43:46;100868.69;;;14.82;100.00
48077;BME280;33854;57.708;12.008;2023-05-23T02:46:12;100860.91;;;14.80;100.00
48077;BME280;33854;57.708;12.008;2023-05-23T02:48:37;100855.91;;;14.76;100.00
48077;BME280;33854;57.708;12.008;2023-05-23T02:51:03;100852.63;;;14.72;100.00
48077;BME280;33854;57.708;12.008;2023-05-23T02:53:28;100853.66;;;14.70;100.00
48077;BME280;33854;57.708;12.008;2023-05-23T02:55:54;100847.56;;;14.69;100.00
48077;BME280;33854;57.708;12.008;2023-05-23T02:58:19;100845.91;;;14.68;100.00
48077;BME280;33854;57.708;12.008;2023-05-23T03:00:45;100838.09;;;14.67;100.00
48077;BME280;33854;57.708;12.008;2023-05-23T03:03:10;100833.88;;;14.64;100.00
48077;BME280;33854;57.708;12.008;2023-05-23T03:05:36;100830.31;;;14.65;100.00
48077;BME280;33854;57.708;12.008;2023-05-23T03:08:02;100829.38;;;14.66;100.00
48077;BME280;33854;57.708;12.008;2023-05-23T03:10:27;100824.69;;;14.71;100.00
48077;BME280;33854;57.708;12.008;2023-05-23T03:12:53;100824.59;;;14.73;100.00
48077;BME280;33854;57.708;12.008;2023-05-23T03:15:18;100823.53;;;14.75;100.00
48077;BME280;33854;57.708;12.008;2023-05-23T03:17:43;100817.38;;;14.76;100.00
48077;BME280;33854;57.708;12.008;2023-05-23T03:20:10;100827.69;;;14.79;100.00
48077;BME280;33854;57.708;12.008;2023-05-23T03:22:35;100820.66;;;14.80;100.00
48077;BME280;33854;57.708;12.008;2023-05-23T03:25:01;100813.81;;;14.77;100.00
48077;BME280;33854;57.708;12.008;2023-05-23T03:27:27;100812.97;;;14.77;100.00
48077;BME280;33854;57.708;12.008;2023-05-23T03:29:52;100816.31;;;14.79;100.00
48077;BME280;33854;57.708;12.008;2023-05-23T03:32:18;100807.72;;;14.77;100.00
48077;BME280;33854;57.708;12.008;2023-05-23T03:34:43;100805.06;;;14.77;100.00
48077;BME280;33854;57.708;12.008;2023-05-23T03:37:08;100811.00;;;14.80;100.00
48077;BME280;33854;57.708;12.008;2023-05-23T03:39:34;100804.97;;;14.78;100.00
48077;BME280;33854;57.708;12.008;2023-05-23T03:41:59;100799.91;;;14.75;100.00
48077;BME280;33854;57.708;12.008;2023-05-23T03:44:25;100800.84;;;14.74;100.00
48077;BME280;33854;57.708;12.008;2023-05-23T03:46:51;100793.53;;;14.79;100.00
48077;BME280;33854;57.708;12.008;2023-05-23T03:49:16;100788.16;;;14.81;100.00
48077;BME280;33854;57.708;12.008;2023-05-23T03:51:41;100790.78;;;14.81;100.00
48077;BME280;33854;57.708;12.008;2023-05-23T03:54:07;100785.66;;;14.79;100.00
48077;BME280;33854;57.708;12.008;2023-05-23T03:56:32;100788.28;;;14.79;100.00
48077;BME280;33854;57.708;12.008;2023-05-23T03:58:58;100782.91;;;14.81;100.00
48077;BME280;33854;57.708;12.008;2023-05-23T04:01:23;100776.06;;;14.78;100.00
48077;BME280;33854;57.708;12.008;2023-05-23T04:03:49;100780.28;;;14.81;100.00
48077;BME280;33854;57.708;12.008;2023-05-23T04:06:15;100765.88;;;14.74;100.00
48077;BME280;33854;57.708;12.008;2023-05-23T04:08:41;100774.22;;;14.80;100.00
48077;BME280;33854;57.708;12.008;2023-05-23T04:11:07;100768.19;;;14.78;100.00
48077;BME280;33854;57.708;12.008;2023-05-23T04:13:33;100773.38;;;14.80;100.00
48077;BME280;33854;57.708;12.008;2023-05-23T04:16:01;100769.69;;;14.82;100.00
48077;BME280;33854;57.708;12.008;2023-05-23T04:18:30;100762.75;;;14.81;100.00
48077;BME280;33854;57.708;12.008;2023-05-23T04:20:57;100770.97;;;14.90;100.00
48077;BME280;33854;57.708;12.008;2023-05-23T04:23:23;100773.22;;;14.96;100.00
48077;BME280;33854;57.708;12.008;2023-05-23T04:25:49;100763.00;;;14.91;100.00
48077;BME280;33854;57.708;12.008;2023-05-23T04:28:15;100762.16;;;14.91;100.00
48077;BME280;33854;57.708;12.008;2023-05-23T04:30:42;100766.00;;;14.99;100.00
48077;BME280;33854;57.708;12.008;2023-05-23T04:33:07;100757.19;;;15.00;100.00
48077;BME280;33854;57.708;12.008;2023-05-23T04:35:34;100756.34;;;15.00;100.00
48077;BME280;33854;57.708;12.008;2023-05-23T04:38:03;100750.03;;;15.02;100.00
48077;BME280;33854;57.708;12.008;2023-05-23T04:40:28;100741.31;;;15.02;100.00
48077;BME280;33854;57.708;12.008;2023-05-23T04:42:54;100743.25;;;15.12;100.00
48077;BME280;33854;57.708;12.008;2023-05-23T04:45:21;100746.31;;;15.19;100.00
48077;BME280;33854;57.708;12.008;2023-05-23T04:47:46;100742.56;;;15.23;100.00
48077;BME280;33854;57.708;12.008;2023-05-23T04:50:12;100740.56;;;15.26;100.00
48077;BME280;33854;57.708;12.008;2023-05-23T04:52:39;100731.44;;;15.32;100.00
48077;BME280;33854;57.708;12.008;2023-05-23T04:55:05;100738.38;;;15.33;100.00
48077;BME280;33854;57.708;12.008;2023-05-23T04:57:33;100731.13;;;15.36;100.00
48077;BME280;33854;57.708;12.008;2023-05-23T04:59:58;100727.78;;;15.34;100.00
48077;BME280;33854;57.708;12.008;2023-05-23T05:02:25;100727.44;;;15.39;100.00
48077;BME280;33854;57.708;12.008;2023-05-23T05:04:51;100719.38;;;15.42;100.00
48077;BME280;33854;57.708;12.008;2023-05-23T05:07:17;100725.09;;;15.49;100.00
48077;BME280;33854;57.708;12.008;2023-05-23T05:09:42;100726.78;;;15.50;100.00
48077;BME280;33854;57.708;12.008;2023-05-23T05:12:08;100716.28;;;15.50;100.00
48077;BME280;33854;57.708;12.008;2023-05-23T05:14:33;100713.66;;;15.50;100.00
48077;BME280;33854;57.708;12.008;2023-05-23T05:16:58;100703.53;;;15.56;100.00
48077;BME280;33854;57.708;12.008;2023-05-23T05:19:26;100718.06;;;15.62;100.00
48077;BME280;33854;57.708;12.008;2023-05-23T05:21:52;100721.53;;;15.62;100.00
48077;BME280;33854;57.708;12.008;2023-05-23T05:24:17;100729.16;;;15.67;100.00
48077;BME280;33854;57.708;12.008;2023-05-23T05:26:45;100719.34;;;15.69;100.00
48077;BME280;33854;57.708;12.008;2023-05-23T05:29:11;100723.56;;;15.71;100.00
48077;BME280;33854;57.708;12.008;2023-05-23T05:31:37;100702.50;;;15.71;100.00
48077;BME280;33854;57.708;12.008;2023-05-23T05:34:03;100714.72;;;15.72;100.00
48077;BME280;33854;57.708;12.008;2023-05-23T05:36:28;100725.09;;;15.61;100.00
48077;BME280;33854;57.708;12.008;2023-05-23T05:38:53;100732.47;;;15.56;100.00
48077;BME280;33854;57.708;12.008;2023-05-23T05:41:19;100719.09;;;15.47;100.00
48077;BME280;33854;57.708;12.008;2023-05-23T05:43:46;100712.31;;;15.43;100.00
48077;BME280;33854;57.708;12.008;2023-05-23T05:46:11;100727.97;;;15.44;100.00
48077;BME280;33854;57.708;12.008;2023-05-23T05:48:37;100723.69;;;15.43;100.00
48077;BME280;33854;57.708;12.008;2023-05-23T05:51:02;100720.09;;;15.44;100.00
48077;BME280;33854;57.708;12.008;2023-05-23T05:53:28;100723.88;;;15.40;100.00
48077;BME280;33854;57.708;12.008;2023-05-23T05:55:53;100717.66;;;15.28;100.00
48077;BME280;33854;57.708;12.008;2023-05-23T05:58:19;100717.53;;;15.30;100.00
48077;BME280;33854;57.708;12.008;2023-05-23T06:00:45;100701.88;;;15.28;100.00
48077;BME280;33854;57.708;12.008;2023-05-23T06:03:10;100710.81;;;15.26;100.00
48077;BME280;33854;57.708;12.008;2023-05-23T06:05:36;100706.59;;;15.23;100.00
48077;BME280;33854;57.708;12.008;2023-05-23T06:08:03;100711.66;;;15.26;100.00
48077;BME280;33854;57.708;12.008;2023-05-23T06:10:29;100709.63;;;15.17;100.00
48077;BME280;33854;57.708;12.008;2023-05-23T06:12:55;100709.63;;;15.17;100.00
48077;BME280;33854;57.708;12.008;2023-05-23T06:15:20;100706.16;;;15.17;100.00
48077;BME280;33854;57.708;12.008;2023-05-23T06:17:45;100713.09;;;15.18;100.00
48077;BME280;33854;57.708;12.008;2023-05-23T06:20:11;100693.59;;;15.08;100.00
48077;BME280;33854;57.708;12.008;2023-05-23T06:22:37;100700.28;;;15.26;100.00
48077;BME280;33854;57.708;12.008;2023-05-23T06:25:02;100710.41;;;15.32;100.00
48077;BME280;33854;57.708;12.008;2023-05-23T06:27:28;100706.81;;;15.33;100.00
48077;BME280;33854;57.708;12.008;2023-05-23T06:29:53;100697.34;;;15.30;100.00
48077;BME280;33854;57.708;12.008;2023-05-23T06:32:19;100703.13;;;15.35;100.00
48077;BME280;33854;57.708;12.008;2023-05-23T06:34:44;100703.69;;;15.40;100.00
48077;BME280;33854;57.708;12.008;2023-05-23T06:37:10;100693.72;;;15.46;100.00
48077;BME280;33854;57.708;12.008;2023-05-23T06:39:35;100672.41;;;15.63;100.00
48077;BME280;33854;57.708;12.008;2023-05-23T06:42:01;100669.34;;;15.81;100.00
48077;BME280;33854;57.708;12.008;2023-05-23T06:44:26;100678.75;;;15.98;100.00
48077;BME280;33854;57.708;12.008;2023-05-23T06:46:52;100671.38;;;16.03;100.00
48077;BME280;33854;57.708;12.008;2023-05-23T06:49:22;100669.88;;;16.12;100.00
48077;BME280;33854;57.708;12.008;2023-05-23T06:51:48;100673.44;;;16.11;100.00
48077;BME280;33854;57.708;12.008;2023-05-23T06:54:13;100652.94;;;16.03;100.00
48077;BME280;33854;57.708;12.008;2023-05-23T06:56:39;100640.81;;;16.13;100.00
48077;BME280;33854;57.708;12.008;2023-05-23T06:59:04;100639.53;;;16.19;100.00
48077;BME280;33854;57.708;12.008;2023-05-23T07:01:29;100663.34;;;16.05;100.00
48077;BME280;33854;57.708;12.008;2023-05-23T07:03:55;100691.56;;;15.77;100.00
48077;BME280;33854;57.708;12.008;2023-05-23T07:06:20;100682.59;;;15.67;100.00
48077;BME280;33854;57.708;12.008;2023-05-23T07:08:46;100680.53;;;15.72;100.00
48077;BME280;33854;57.708;12.008;2023-05-23T07:11:11;100687.78;;;15.81;100.00
48077;BME280;33854;57.708;12.008;2023-05-23T07:13:37;100699.25;;;15.68;100.00
48077;BME280;33854;57.708;12.008;2023-05-23T07:16:02;100699.16;;;15.69;100.00
48077;BME280;33854;57.708;12.008;2023-05-23T07:18:28;100688.63;;;15.69;100.00
48077;BME280;33854;57.708;12.008;2023-05-23T07:20:53;100700.81;;;15.70;100.00
48077;BME280;33854;57.708;12.008;2023-05-23T07:23:19;100686.09;;;15.55;100.00
48077;BME280;33854;57.708;12.008;2023-05-23T07:25:44;100684.53;;;15.78;100.00
48077;BME280;33854;57.708;12.008;2023-05-23T07:28:11;100656.41;;;16.04;100.00
48077;BME280;33854;57.708;12.008;2023-05-23T07:30:37;100679.88;;;16.19;100.00
48077;BME280;33854;57.708;12.008;2023-05-23T07:33:02;100676.94;;;16.11;100.00
48077;BME280;33854;57.708;12.008;2023-05-23T07:35:28;100684.81;;;16.11;100.00
48077;BME280;33854;57.708;12.008;2023-05-23T07:37:54;100686.31;;;16.03;100.00
48077;BME280;33854;57.708;12.008;2023-05-23T07:40:20;100668.19;;;16.23;100.00
48077;BME280;33854;57.708;12.008;2023-05-23T07:42:46;100662.44;;;16.55;100.00
48077;BME280;33854;57.708;12.008;2023-05-23T07:45:12;100670.59;;;16.75;100.00
48077;BME280;33854;57.708;12.008;2023-05-23T07:47:38;100678.59;;;16.74;100.00
48077;BME280;33854;57.708;12.008;2023-05-23T07:50:04;100680.53;;;16.72;100.00
48077;BME280;33854;57.708;12.008;2023-05-23T07:52:29;100696.78;;;16.66;100.00
48077;BME280;33854;57.708;12.008;2023-05-23T07:54:56;100706.09;;;16.59;100.00
48077;BME280;33854;57.708;12.008;2023-05-23T07:57:22;100697.81;;;16.50;100.00
48077;BME280;33854;57.708;12.008;2023-05-23T07:59:49;100699.13;;;16.58;100.00
48077;BME280;33854;57.708;12.008;2023-05-23T08:02:15;100693.91;;;16.69;100.00
48077;BME280;33854;57.708;12.008;2023-05-23T08:04:41;100688.50;;;16.83;100.00
48077;BME280;33854;57.708;12.008;2023-05-23T08:07:06;100691.69;;;16.75;100.00
48077;BME280;33854;57.708;12.008;2023-05-23T08:09:33;100695.28;;;16.62;100.00
48077;BME280;33854;57.708;12.008;2023-05-23T08:11:58;100691.00;;;16.61;100.00
48077;BME280;33854;57.708;12.008;2023-05-23T08:14:24;100685.31;;;16.54;100.00
48077;BME280;33854;57.708;12.008;2023-05-23T08:16:49;100695.41;;;16.60;100.00
48077;BME280;33854;57.708;12.008;2023-05-23T08:19:14;100687.38;;;16.62;100.00
48077;BME280;33854;57.708;12.008;2023-05-23T08:21:40;100690.16;;;16.60;100.00
48077;BME280;33854;57.708;12.008;2023-05-23T08:24:06;100696.13;;;16.62;100.00
48077;BME280;33854;57.708;12.008;2023-05-23T08:26:32;100685.28;;;16.67;100.00
48077;BME280;33854;57.708;12.008;2023-05-23T08:29:01;100681.38;;;16.72;100.00
48077;BME280;33854;57.708;12.008;2023-05-23T08:31:28;100690.63;;;16.78;100.00
48077;BME280;33854;57.708;12.008;2023-05-23T08:33:54;100699.75;;;16.85;100.00
48077;BME280;33854;57.708;12.008;2023-05-23T08:36:20;100692.75;;;16.96;100.00
48077;BME280;33854;57.708;12.008;2023-05-23T08:38:45;100686.84;;;17.17;100.00
48077;BME280;33854;57.708;12.008;2023-05-23T08:41:18;100685.50;;;17.35;100.00
48077;BME280;33854;57.708;12.008;2023-05-23T08:43:43;100682.66;;;17.49;100.00
48077;BME280;33854;57.708;12.008;2023-05-23T08:46:10;100674.72;;;17.61;100.00
48077;BME280;33854;57.708;12.008;2023-05-23T08:48:37;100671.03;;;17.86;100.00
48077;BME280;33854;57.708;12.008;2023-05-23T08:51:03;100661.56;;;17.95;100.00
48077;BME280;33854;57.708;12.008;2023-05-23T08:53:30;100663.63;;;18.13;100.00
48077;BME280;33854;57.708;12.008;2023-05-23T08:55:57;100667.34;;;18.22;100.00
48077;BME280;33854;57.708;12.008;2023-05-23T08:58:29;100675.13;;;18.01;100.00
48077;BME280;33854;57.708;12.008;2023-05-23T09:00:56;100668.28;;;18.10;100.00
48077;BME280;33854;57.708;12.008;2023-05-23T09:03:25;100670.31;;;18.17;100.00
48077;BME280;33854;57.708;12.008;2023-05-23T09:05:52;100672.63;;;18.22;100.00
48077;BME280;33854;57.708;12.008;2023-05-23T09:08:19;100661.91;;;18.12;100.00
48077;BME280;33854;57.708;12.008;2023-05-23T09:10:45;100666.72;;;18.18;100.00
48077;BME280;33854;57.708;12.008;2023-05-23T09:13:11;100661.53;;;18.28;100.00
48077;BME280;33854;57.708;12.008;2023-05-23T09:15:36;100653.28;;;18.21;100.00
48077;BME280;33854;57.708;12.008;2023-05-23T09:18:02;100672.59;;;18.44;100.00
48077;BME280;33854;57.708;12.008;2023-05-23T09:20:28;100660.34;;;18.54;100.00
48077;BME280;33854;57.708;12.008;2023-05-23T09:22:54;100654.16;;;18.87;100.00
48077;BME280;33854;57.708;12.008;2023-05-23T09:25:20;100669.03;;;19.20;100.00
48077;BME280;33854;57.708;12.008;2023-05-23T09:27:46;100670.38;;;19.25;100.00
48077;BME280;33854;57.708;12.008;2023-05-23T09:30:12;100662.28;;;18.95;100.00
48077;BME280;33854;57.708;12.008;2023-05-23T09:32:38;100655.75;;;18.78;100.00
48077;BME280;33854;57.708;12.008;2023-05-23T09:35:05;100661.88;;;18.79;100.00
48077;BME280;33854;57.708;12.008;2023-05-23T09:37:36;100661.31;;;18.64;100.00
48077;BME280;33854;57.708;12.008;2023-05-23T09:40:07;100654.47;;;18.62;100.00
48077;BME280;33854;57.708;12.008;2023-05-23T09:42:43;100652.75;;;18.72;100.00
48077;BME280;33854;57.708;12.008;2023-05-23T09:45:10;100659.41;;;18.98;100.00
48077;BME280;33854;57.708;12.008;2023-05-23T09:47:35;100663.78;;;18.88;100.00
48077;BME280;33854;57.708;12.008;2023-05-23T09:50:01;100660.59;;;18.94;100.00
48077;BME280;33854;57.708;12.008;2023-05-23T09:52:35;100667.81;;;18.92;100.00
48077;BME280;33854;57.708;12.008;2023-05-23T09:55:00;100671.72;;;18.88;100.00
48077;BME280;33854;57.708;12.008;2023-05-23T09:57:26;100664.88;;;19.06;100.00
48077;BME280;33854;57.708;12.008;2023-05-23T09:59:52;100666.38;;;19.31;100.00
48077;BME280;33854;57.708;12.008;2023-05-23T10:04:59;100674.38;;;19.09;100.00
48077;BME280;33854;57.708;12.008;2023-05-23T10:07:24;100677.28;;;19.06;100.00
48077;BME280;33854;57.708;12.008;2023-05-23T10:10:01;100674.63;;;19.06;100.00
48077;BME280;33854;57.708;12.008;2023-05-23T10:14:58;100665.69;;;19.18;100.00
48077;BME280;33854;57.708;12.008;2023-05-23T10:17:35;100658.91;;;19.04;100.00
48077;BME280;33854;57.708;12.008;2023-05-23T10:20:07;100665.88;;;18.62;100.00
48077;BME280;33854;57.708;12.008;2023-05-23T10:22:35;100656.25;;;18.28;100.00
48077;BME280;33854;57.708;12.008;2023-05-23T10:25:03;100664.19;;;18.17;100.00
48077;BME280;33854;57.708;12.008;2023-05-23T10:27:30;100668.38;;;18.19;100.00
48077;BME280;33854;57.708;12.008;2023-05-23T10:29:56;100666.72;;;18.18;100.00
48077;BME280;33854;57.708;12.008;2023-05-23T10:32:22;100671.63;;;17.79;100.00
48077;BME280;33854;57.708;12.008;2023-05-23T10:40:15;100697.31;;;16.94;100.00
48077;BME280;33854;57.708;12.008;2023-05-23T10:43:54;100695.69;;;17.04;100.00
48077;BME280;33854;57.708;12.008;2023-05-23T10:46:12;100704.94;;;17.10;100.00
48077;BME280;33854;57.708;12.008;2023-05-23T10:48:43;100713.97;;;16.59;100.00
48077;BME280;33854;57.708;12.008;2023-05-23T10:51:11;100726.84;;;16.25;100.00
48077;BME280;33854;57.708;12.008;2023-05-23T10:53:42;100726.94;;;15.98;100.00
48077;BME280;33854;57.708;12.008;2023-05-23T10:56:09;100722.31;;;16.02;100.00
48077;BME280;33854;57.708;12.008;2023-05-23T10:58:37;100723.59;;;16.09;100.00
48077;BME280;33854;57.708;12.008;2023-05-23T11:01:12;100708.97;;;15.92;100.00
48077;BME280;33854;57.708;12.008;2023-05-23T11:06:35;100691.34;;;15.55;100.00
48077;BME280;33854;57.708;12.008;2023-05-23T11:14:13;100695.25;;;15.35;100.00
48077;BME280;33854;57.708;12.008;2023-05-23T11:16:40;100694.47;;;15.48;100.00
48077;BME280;33854;57.708;12.008;2023-05-23T11:21:44;100695.44;;;15.47;100.00
48077;BME280;33854;57.708;12.008;2023-05-23T11:24:10;100694.13;;;15.39;100.00
48077;BME280;33854;57.708;12.008;2023-05-23T11:26:35;100706.19;;;15.29;100.00
48077;BME280;33854;57.708;12.008;2023-05-23T11:29:01;100697.22;;;15.19;100.00
48077;BME280;33854;57.708;12.008;2023-05-23T11:31:29;100697.41;;;15.16;100.00
48077;BME280;33854;57.708;12.008;2023-05-23T11:33:55;100696.97;;;15.10;100.00
48077;BME280;33854;57.708;12.008;2023-05-23T11:36:21;100705.66;;;14.98;100.00
48077;BME280;33854;57.708;12.008;2023-05-23T11:38:51;100698.66;;;15.11;100.00
48077;BME280;33854;57.708;12.008;2023-05-23T11:41:20;100699.88;;;15.32;100.00
48077;BME280;33854;57.708;12.008;2023-05-23T11:43:50;100690.00;;;15.35;100.00
48077;BME280;33854;57.708;12.008;2023-05-23T11:46:16;100694.59;;;15.59;100.00
48077;BME280;33854;57.708;12.008;2023-05-23T11:48:47;100709.69;;;15.69;100.00
48077;BME280;33854;57.708;12.008;2023-05-23T11:51:16;100708.19;;;15.65;100.00
48077;BME280;33854;57.708;12.008;2023-05-23T11:53:41;100711.75;;;15.64;100.00
48077;BME280;33854;57.708;12.008;2023-05-23T11:56:07;100720.09;;;15.58;100.00
48077;BME280;33854;57.708;12.008;2023-05-23T11:58:37;100712.53;;;15.39;100.00
48077;BME280;33854;57.708;12.008;2023-05-23T12:01:05;100708.72;;;15.31;100.00
48077;BME280;33854;57.708;12.008;2023-05-23T12:03:32;100717.34;;;15.33;100.00
48077;BME280;33854;57.708;12.008;2023-05-23T12:05:58;100715.75;;;15.30;100.00
48077;BME280;33854;57.708;12.008;2023-05-23T12:08:24;100711.94;;;14.95;100.00
48077;BME280;33854;57.708;12.008;2023-05-23T12:10:51;100717.16;;;14.82;100.00
48077;BME280;33854;57.708;12.008;2023-05-23T12:13:18;100715.25;;;14.84;100.00
48077;BME280;33854;57.708;12.008;2023-05-23T12:15:44;100724.50;;;14.77;100.00
48077;BME280;33854;57.708;12.008;2023-05-23T12:18:11;100714.59;;;14.81;100.00
48077;BME280;33854;57.708;12.008;2023-05-23T12:20:37;100712.25;;;14.91;100.00
48077;BME280;33854;57.708;12.008;2023-05-23T12:23:05;100719.34;;;15.03;100.00
48077;BME280;33854;57.708;12.008;2023-05-23T12:25:40;100731.19;;;14.96;100.00
48077;BME280;33854;57.708;12.008;2023-05-23T12:28:08;100723.50;;;14.93;100.00
48077;BME280;33854;57.708;12.008;2023-05-23T12:30:41;100724.72;;;14.87;100.00
48077;BME280;33854;57.708;12.008;2023-05-23T12:33:08;100717.81;;;14.86;100.00
48077;BME280;33854;57.708;12.008;2023-05-23T12:35:33;100720.06;;;14.78;100.00
48077;BME280;33854;57.708;12.008;2023-05-23T12:37:59;100715.41;;;14.69;100.00
48077;BME280;33854;57.708;12.008;2023-05-23T12:40:24;100715.84;;;14.75;100.00
48077;BME280;33854;57.708;12.008;2023-05-23T12:42:54;100705.28;;;14.63;100.00
48077;BME280;33854;57.708;12.008;2023-05-23T12:45:40;100717.53;;;14.76;100.00
48077;BME280;33854;57.708;12.008;2023-05-23T12:48:05;100717.34;;;14.79;100.00
48077;BME280;33854;57.708;12.008;2023-05-23T12:50:31;100723.34;;;14.81;100.00
48077;BME280;33854;57.708;12.008;2023-05-23T12:52:58;100721.25;;;14.87;100.00
48077;BME280;33854;57.708;12.008;2023-05-23T12:55:23;100727.47;;;14.86;100.00